sensor_id;sensor_type;location;lat;lon;timestamp;P1;durP1;ratioP1;P2;durP2;ratioP2
58055;SDS011;53159;55.152;36.614;2022-09-23T00:01:08;64.88;;;36.03;;
58055;SDS011;53159;55.152;36.614;2022-09-23T00:03:40;51.75;;;31.70;;
58055;SDS011;53159;55.152;36.614;2022-09-23T00:06:17;60.78;;;35.17;;
58055;SDS011;53159;55.152;36.614;2022-09-23T00:08:47;62.03;;;35.22;;
58055;SDS011;53159;55.152;36.614;2022-09-23T00:11:19;59.85;;;34.17;;
58055;SDS011;53159;55.152;36.614;2022-09-23T00:13:49;53.03;;;33.67;;
58055;SDS011;53159;55.152;36.614;2022-09-23T00:16:22;63.72;;;32.67;;
58055;SDS011;53159;55.152;36.614;2022-09-23T00:18:51;63.92;;;35.47;;
58055;SDS011;53159;55.152;36.614;2022-09-23T00:21:18;58.95;;;33.30;;
58055;SDS011;53159;55.152;36.614;2022-09-23T00:23:47;69.65;;;37.40;;
58055;SDS011;53159;55.152;36.614;2022-09-23T00:26:14;60.05;;;34.53;;
58055;SDS011;53159;55.152;36.614;2022-09-23T00:28:44;58.35;;;35.47;;
58055;SDS011;53159;55.152;36.614;2022-09-23T00:31:19;67.72;;;37.00;;
58055;SDS011;53159;55.152;36.614;2022-09-23T00:33:58;62.97;;;33.90;;
58055;SDS011;53159;55.152;36.614;2022-09-23T00:36:28;52.38;;;32.88;;
58055;SDS011;53159;55.152;36.614;2022-09-23T00:38:57;58.47;;;32.97;;
58055;SDS011;53159;55.152;36.614;2022-09-23T00:41:24;59.30;;;34.88;;
58055;SDS011;53159;55.152;36.614;2022-09-23T00:43:59;45.25;;;28.85;;
58055;SDS011;53159;55.152;36.614;2022-09-23T00:46:42;52.45;;;31.20;;
58055;SDS011;53159;55.152;36.614;2022-09-23T00:49:17;56.55;;;32.38;;
58055;SDS011;53159;55.152;36.614;2022-09-23T00:51:59;63.20;;;35.40;;
58055;SDS011;53159;55.152;36.614;2022-09-23T00:54:38;61.25;;;32.85;;
58055;SDS011;53159;55.152;36.614;2022-09-23T00:57:05;66.38;;;33.85;;
58055;SDS011;53159;55.152;36.614;2022-09-23T00:59:34;91.68;;;41.90;;
58055;SDS011;53159;55.152;36.614;2022-09-23T01:02:02;62.72;;;34.10;;
58055;SDS011;53159;55.152;36.614;2022-09-23T01:04:30;57.80;;;33.97;;
58055;SDS011;53159;55.152;36.614;2022-09-23T01:06:58;66.70;;;38.28;;
58055;SDS011;53159;55.152;36.614;2022-09-23T01:09:26;63.65;;;37.60;;
58055;SDS011;53159;55.152;36.614;2022-09-23T01:26:12;61.42;;;31.27;;
58055;SDS011;53159;55.152;36.614;2022-09-23T01:31:42;55.88;;;29.90;;
58055;SDS011;53159;55.152;36.614;2022-09-23T01:34:22;64.35;;;33.80;;
58055;SDS011;53159;55.152;36.614;2022-09-23T01:43:06;49.13;;;26.85;;
58055;SDS011;53159;55.152;36.614;2022-09-23T01:45:57;63.58;;;32.28;;
58055;SDS011;53159;55.152;36.614;2022-09-23T01:51:24;72.55;;;33.58;;
58055;SDS011;53159;55.152;36.614;2022-09-23T01:56:48;70.85;;;34.67;;
58055;SDS011;53159;55.152;36.614;2022-09-23T01:59:34;61.78;;;29.85;;
58055;SDS011;53159;55.152;36.614;2022-09-23T02:04:46;69.13;;;33.42;;
58055;SDS011;53159;55.152;36.614;2022-09-23T02:07:33;66.45;;;32.70;;
58055;SDS011;53159;55.152;36.614;2022-09-23T02:10:21;72.35;;;34.83;;
58055;SDS011;53159;55.152;36.614;2022-09-23T02:13:04;55.75;;;29.02;;
58055;SDS011;53159;55.152;36.614;2022-09-23T02:15:42;53.28;;;31.38;;
58055;SDS011;53159;55.152;36.614;2022-09-23T02:18:20;49.72;;;29.40;;
58055;SDS011;53159;55.152;36.614;2022-09-23T02:20:54;56.95;;;31.38;;
58055;SDS011;53159;55.152;36.614;2022-09-23T02:23:43;62.13;;;33.90;;
58055;SDS011;53159;55.152;36.614;2022-09-23T02:31:29;71.75;;;35.08;;
58055;SDS011;53159;55.152;36.614;2022-09-23T02:37:34;49.45;;;27.00;;
58055;SDS011;53159;55.152;36.614;2022-09-23T02:40:06;65.65;;;33.33;;
58055;SDS011;53159;55.152;36.614;2022-09-23T02:45:32;66.38;;;30.77;;
58055;SDS011;53159;55.152;36.614;2022-09-23T02:48:12;62.97;;;31.08;;
58055;SDS011;53159;55.152;36.614;2022-09-23T02:50:44;64.65;;;32.03;;
58055;SDS011;53159;55.152;36.614;2022-09-23T02:53:13;54.33;;;28.88;;
58055;SDS011;53159;55.152;36.614;2022-09-23T02:55:42;46.33;;;28.55;;
58055;SDS011;53159;55.152;36.614;2022-09-23T02:58:10;51.90;;;30.17;;
58055;SDS011;53159;55.152;36.614;2022-09-23T03:03:42;51.28;;;30.25;;
58055;SDS011;53159;55.152;36.614;2022-09-23T03:09:23;46.70;;;28.70;;
58055;SDS011;53159;55.152;36.614;2022-09-23T03:12:34;73.50;;;39.03;;
58055;SDS011;53159;55.152;36.614;2022-09-23T03:18:02;52.08;;;32.17;;
58055;SDS011;53159;55.152;36.614;2022-09-23T03:20:54;45.80;;;29.38;;
58055;SDS011;53159;55.152;36.614;2022-09-23T03:23:27;46.65;;;30.17;;
58055;SDS011;53159;55.152;36.614;2022-09-23T03:26:34;43.78;;;26.30;;
58055;SDS011;53159;55.152;36.614;2022-09-23T03:29:02;46.95;;;29.17;;
58055;SDS011;53159;55.152;36.614;2022-09-23T03:31:34;43.50;;;26.63;;
58055;SDS011;53159;55.152;36.614;2022-09-23T03:34:04;48.20;;;30.30;;
58055;SDS011;53159;55.152;36.614;2022-09-23T03:36:45;39.97;;;26.77;;
58055;SDS011;53159;55.152;36.614;2022-09-23T03:42:33;50.95;;;33.90;;
58055;SDS011;53159;55.152;36.614;2022-09-23T03:45:04;57.75;;;37.25;;
58055;SDS011;53159;55.152;36.614;2022-09-23T03:47:35;66.50;;;37.58;;
58055;SDS011;53159;55.152;36.614;2022-09-23T03:50:04;51.55;;;33.38;;
58055;SDS011;53159;55.152;36.614;2022-09-23T03:52:31;62.83;;;36.25;;
58055;SDS011;53159;55.152;36.614;2022-09-23T03:54:58;57.20;;;33.53;;
58055;SDS011;53159;55.152;36.614;2022-09-23T03:57:26;58.15;;;31.17;;
58055;SDS011;53159;55.152;36.614;2022-09-23T03:59:52;58.72;;;33.53;;
58055;SDS011;53159;55.152;36.614;2022-09-23T04:02:20;66.55;;;35.10;;
58055;SDS011;53159;55.152;36.614;2022-09-23T04:04:47;56.85;;;32.00;;
58055;SDS011;53159;55.152;36.614;2022-09-23T04:07:15;55.38;;;32.22;;
58055;SDS011;53159;55.152;36.614;2022-09-23T04:09:43;64.75;;;34.58;;
58055;SDS011;53159;55.152;36.614;2022-09-23T04:12:12;57.53;;;33.90;;
58055;SDS011;53159;55.152;36.614;2022-09-23T04:14:41;85.65;;;40.50;;
58055;SDS011;53159;55.152;36.614;2022-09-23T04:17:10;68.97;;;35.75;;
58055;SDS011;53159;55.152;36.614;2022-09-23T04:19:38;61.33;;;33.40;;
58055;SDS011;53159;55.152;36.614;2022-09-23T04:22:05;56.33;;;31.55;;
58055;SDS011;53159;55.152;36.614;2022-09-23T04:24:32;56.88;;;30.45;;
58055;SDS011;53159;55.152;36.614;2022-09-23T04:27:00;58.05;;;34.10;;
58055;SDS011;53159;55.152;36.614;2022-09-23T04:29:27;66.40;;;36.95;;
58055;SDS011;53159;55.152;36.614;2022-09-23T04:31:53;70.07;;;39.40;;
58055;SDS011;53159;55.152;36.614;2022-09-23T04:34:21;64.75;;;37.45;;
58055;SDS011;53159;55.152;36.614;2022-09-23T04:36:49;57.10;;;33.05;;
58055;SDS011;53159;55.152;36.614;2022-09-23T04:39:17;79.30;;;39.88;;
58055;SDS011;53159;55.152;36.614;2022-09-23T04:41:44;63.65;;;34.47;;
58055;SDS011;53159;55.152;36.614;2022-09-23T04:44:12;72.57;;;36.53;;
58055;SDS011;53159;55.152;36.614;2022-09-23T04:46:40;58.17;;;31.15;;
58055;SDS011;53159;55.152;36.614;2022-09-23T04:49:10;71.28;;;37.65;;
58055;SDS011;53159;55.152;36.614;2022-09-23T04:51:39;58.90;;;29.25;;
58055;SDS011;53159;55.152;36.614;2022-09-23T04:54:09;63.53;;;33.83;;
58055;SDS011;53159;55.152;36.614;2022-09-23T04:56:38;72.28;;;36.90;;
58055;SDS011;53159;55.152;36.614;2022-09-23T04:59:05;61.95;;;32.80;;
58055;SDS011;53159;55.152;36.614;2022-09-23T05:01:33;86.18;;;37.80;;
58055;SDS011;53159;55.152;36.614;2022-09-23T05:04:03;65.65;;;31.63;;
58055;SDS011;53159;55.152;36.614;2022-09-23T05:06:32;58.13;;;29.65;;
58055;SDS011;53159;55.152;36.614;2022-09-23T05:09:02;55.30;;;30.30;;
58055;SDS011;53159;55.152;36.614;2022-09-23T05:11:30;61.45;;;31.95;;
58055;SDS011;53159;55.152;36.614;2022-09-23T05:13:58;53.58;;;30.88;;
58055;SDS011;53159;55.152;36.614;2022-09-23T05:16:25;56.78;;;31.73;;
58055;SDS011;53159;55.152;36.614;2022-09-23T05:18:53;68.50;;;32.17;;
58055;SDS011;53159;55.152;36.614;2022-09-23T05:21:22;60.15;;;29.95;;
58055;SDS011;53159;55.152;36.614;2022-09-23T05:23:54;58.65;;;30.45;;
58055;SDS011;53159;55.152;36.614;2022-09-23T05:26:25;54.35;;;28.85;;
58055;SDS011;53159;55.152;36.614;2022-09-23T05:28:54;55.92;;;26.75;;
58055;SDS011;53159;55.152;36.614;2022-09-23T05:31:21;65.20;;;31.73;;
58055;SDS011;53159;55.152;36.614;2022-09-23T05:33:51;47.30;;;23.65;;
58055;SDS011;53159;55.152;36.614;2022-09-23T05:36:21;41.47;;;22.25;;
58055;SDS011;53159;55.152;36.614;2022-09-23T05:38:50;57.42;;;29.38;;
58055;SDS011;53159;55.152;36.614;2022-09-23T05:41:19;51.30;;;26.63;;
58055;SDS011;53159;55.152;36.614;2022-09-23T05:43:51;52.97;;;28.60;;
58055;SDS011;53159;55.152;36.614;2022-09-23T05:46:23;43.65;;;25.55;;
58055;SDS011;53159;55.152;36.614;2022-09-23T05:48:55;38.67;;;22.02;;
58055;SDS011;53159;55.152;36.614;2022-09-23T05:51:25;49.63;;;27.58;;
58055;SDS011;53159;55.152;36.614;2022-09-23T05:53:53;40.33;;;25.60;;
58055;SDS011;53159;55.152;36.614;2022-09-23T05:56:24;41.40;;;25.08;;
58055;SDS011;53159;55.152;36.614;2022-09-23T05:58:54;38.00;;;26.73;;
58055;SDS011;53159;55.152;36.614;2022-09-23T06:01:28;37.95;;;24.35;;
58055;SDS011;53159;55.152;36.614;2022-09-23T06:04:02;33.90;;;23.23;;
58055;SDS011;53159;55.152;36.614;2022-09-23T06:06:34;31.50;;;20.70;;
58055;SDS011;53159;55.152;36.614;2022-09-23T06:09:05;30.17;;;22.48;;
58055;SDS011;53159;55.152;36.614;2022-09-23T06:11:34;29.70;;;21.38;;
58055;SDS011;53159;55.152;36.614;2022-09-23T06:14:04;31.00;;;21.23;;
58055;SDS011;53159;55.152;36.614;2022-09-23T06:16:33;29.48;;;19.52;;
58055;SDS011;53159;55.152;36.614;2022-09-23T06:19:00;30.50;;;21.52;;
58055;SDS011;53159;55.152;36.614;2022-09-23T06:21:31;24.27;;;18.55;;
58055;SDS011;53159;55.152;36.614;2022-09-23T06:24:01;22.27;;;17.08;;
58055;SDS011;53159;55.152;36.614;2022-09-23T06:26:29;19.17;;;14.43;;
58055;SDS011;53159;55.152;36.614;2022-09-23T06:29:01;22.92;;;15.38;;
58055;SDS011;53159;55.152;36.614;2022-09-23T06:31:28;24.75;;;18.67;;
58055;SDS011;53159;55.152;36.614;2022-09-23T06:33:55;23.75;;;18.00;;
58055;SDS011;53159;55.152;36.614;2022-09-23T06:36:23;19.50;;;14.60;;
58055;SDS011;53159;55.152;36.614;2022-09-23T06:38:51;18.33;;;15.77;;
58055;SDS011;53159;55.152;36.614;2022-09-23T06:41:18;19.15;;;15.98;;
58055;SDS011;53159;55.152;36.614;2022-09-23T06:43:46;24.02;;;15.90;;
58055;SDS011;53159;55.152;36.614;2022-09-23T06:46:14;15.07;;;12.98;;
58055;SDS011;53159;55.152;36.614;2022-09-23T06:48:43;19.80;;;14.68;;
58055;SDS011;53159;55.152;36.614;2022-09-23T06:51:11;20.70;;;14.95;;
58055;SDS011;53159;55.152;36.614;2022-09-23T06:53:59;18.73;;;14.60;;
58055;SDS011;53159;55.152;36.614;2022-09-23T06:56:27;15.07;;;13.00;;
58055;SDS011;53159;55.152;36.614;2022-09-23T06:58:54;17.98;;;15.40;;
58055;SDS011;53159;55.152;36.614;2022-09-23T07:01:21;17.73;;;15.02;;
58055;SDS011;53159;55.152;36.614;2022-09-23T07:03:49;17.92;;;14.13;;
58055;SDS011;53159;55.152;36.614;2022-09-23T07:06:17;15.65;;;13.95;;
58055;SDS011;53159;55.152;36.614;2022-09-23T07:08:45;16.58;;;12.27;;
58055;SDS011;53159;55.152;36.614;2022-09-23T07:11:14;16.80;;;11.73;;
58055;SDS011;53159;55.152;36.614;2022-09-23T07:13:46;12.98;;;11.25;;
58055;SDS011;53159;55.152;36.614;2022-09-23T07:16:13;13.45;;;10.45;;
58055;SDS011;53159;55.152;36.614;2022-09-23T07:18:43;13.02;;;10.55;;
58055;SDS011;53159;55.152;36.614;2022-09-23T07:21:11;13.65;;;10.95;;
58055;SDS011;53159;55.152;36.614;2022-09-23T07:23:47;10.00;;;8.98;;
58055;SDS011;53159;55.152;36.614;2022-09-23T07:26:16;12.05;;;10.77;;
58055;SDS011;53159;55.152;36.614;2022-09-23T07:28:47;11.40;;;10.07;;
58055;SDS011;53159;55.152;36.614;2022-09-23T07:31:21;13.32;;;10.73;;
58055;SDS011;53159;55.152;36.614;2022-09-23T07:33:48;11.15;;;9.75;;
58055;SDS011;53159;55.152;36.614;2022-09-23T07:36:22;11.38;;;9.43;;
58055;SDS011;53159;55.152;36.614;2022-09-23T07:38:53;9.40;;;8.40;;
58055;SDS011;53159;55.152;36.614;2022-09-23T07:41:25;14.60;;;10.07;;
58055;SDS011;53159;55.152;36.614;2022-09-23T07:43:54;14.95;;;9.13;;
58055;SDS011;53159;55.152;36.614;2022-09-23T07:46:27;16.13;;;9.75;;
58055;SDS011;53159;55.152;36.614;2022-09-23T07:48:58;8.88;;;7.40;;
58055;SDS011;53159;55.152;36.614;2022-09-23T07:51:31;11.40;;;9.65;;
58055;SDS011;53159;55.152;36.614;2022-09-23T07:54:00;10.18;;;9.18;;
58055;SDS011;53159;55.152;36.614;2022-09-23T07:56:28;9.63;;;8.05;;
58055;SDS011;53159;55.152;36.614;2022-09-23T07:58:57;12.55;;;9.32;;
58055;SDS011;53159;55.152;36.614;2022-09-23T08:01:36;11.00;;;7.50;;
58055;SDS011;53159;55.152;36.614;2022-09-23T08:04:10;10.05;;;8.68;;
58055;SDS011;53159;55.152;36.614;2022-09-23T08:06:41;10.20;;;7.47;;
58055;SDS011;53159;55.152;36.614;2022-09-23T08:09:10;8.77;;;7.85;;
58055;SDS011;53159;55.152;36.614;2022-09-23T08:11:39;10.07;;;8.75;;
58055;SDS011;53159;55.152;36.614;2022-09-23T08:14:09;10.65;;;8.15;;
58055;SDS011;53159;55.152;36.614;2022-09-23T08:16:39;9.02;;;7.63;;
58055;SDS011;53159;55.152;36.614;2022-09-23T08:19:07;9.27;;;6.80;;
58055;SDS011;53159;55.152;36.614;2022-09-23T08:21:34;8.85;;;6.78;;
58055;SDS011;53159;55.152;36.614;2022-09-23T08:24:04;7.13;;;6.43;;
58055;SDS011;53159;55.152;36.614;2022-09-23T08:26:33;6.78;;;5.88;;
58055;SDS011;53159;55.152;36.614;2022-09-23T08:29:01;7.00;;;6.28;;
58055;SDS011;53159;55.152;36.614;2022-09-23T08:31:30;7.70;;;6.18;;
58055;SDS011;53159;55.152;36.614;2022-09-23T08:33:57;7.22;;;6.50;;
58055;SDS011;53159;55.152;36.614;2022-09-23T08:36:24;8.57;;;5.72;;
58055;SDS011;53159;55.152;36.614;2022-09-23T08:38:53;5.78;;;5.25;;
58055;SDS011;53159;55.152;36.614;2022-09-23T08:41:27;6.90;;;5.53;;
58055;SDS011;53159;55.152;36.614;2022-09-23T08:44:15;7.70;;;6.28;;
58055;SDS011;53159;55.152;36.614;2022-09-23T08:52:50;7.25;;;6.07;;
58055;SDS011;53159;55.152;36.614;2022-09-23T08:55:22;9.57;;;5.85;;
58055;SDS011;53159;55.152;36.614;2022-09-23T09:00:39;8.10;;;6.25;;
58055;SDS011;53159;55.152;36.614;2022-09-23T09:03:23;6.43;;;5.82;;
58055;SDS011;53159;55.152;36.614;2022-09-23T09:05:57;6.97;;;6.20;;
58055;SDS011;53159;55.152;36.614;2022-09-23T09:08:27;5.95;;;5.35;;
58055;SDS011;53159;55.152;36.614;2022-09-23T09:10:59;5.80;;;5.20;;
58055;SDS011;53159;55.152;36.614;2022-09-23T09:16:04;6.22;;;5.63;;
58055;SDS011;53159;55.152;36.614;2022-09-23T09:18:51;5.28;;;4.80;;
58055;SDS011;53159;55.152;36.614;2022-09-23T09:21:24;5.72;;;4.93;;
58055;SDS011;53159;55.152;36.614;2022-09-23T09:24:05;6.50;;;5.88;;
58055;SDS011;53159;55.152;36.614;2022-09-23T09:26:42;8.13;;;5.43;;
58055;SDS011;53159;55.152;36.614;2022-09-23T09:29:14;6.30;;;5.00;;
58055;SDS011;53159;55.152;36.614;2022-09-23T09:31:47;7.72;;;4.82;;
58055;SDS011;53159;55.152;36.614;2022-09-23T09:37:18;5.97;;;4.95;;
58055;SDS011;53159;55.152;36.614;2022-09-23T09:39:51;7.35;;;4.85;;
58055;SDS011;53159;55.152;36.614;2022-09-23T09:42:20;6.97;;;4.82;;
58055;SDS011;53159;55.152;36.614;2022-09-23T09:45:01;6.43;;;4.85;;
58055;SDS011;53159;55.152;36.614;2022-09-23T09:50:14;5.63;;;5.07;;
58055;SDS011;53159;55.152;36.614;2022-09-23T09:52:47;11.40;;;5.40;;
58055;SDS011;53159;55.152;36.614;2022-09-23T09:55:25;6.15;;;5.32;;
58055;SDS011;53159;55.152;36.614;2022-09-23T09:57:54;6.30;;;4.50;;
58055;SDS011;53159;55.152;36.614;2022-09-23T10:08:28;10.02;;;5.78;;
58055;SDS011;53159;55.152;36.614;2022-09-23T10:10:59;5.72;;;4.97;;
58055;SDS011;53159;55.152;36.614;2022-09-23T10:14:00;6.38;;;4.75;;
58055;SDS011;53159;55.152;36.614;2022-09-23T10:16:39;6.35;;;5.05;;
58055;SDS011;53159;55.152;36.614;2022-09-23T10:19:12;6.93;;;5.35;;
58055;SDS011;53159;55.152;36.614;2022-09-23T10:21:45;6.07;;;5.45;;
58055;SDS011;53159;55.152;36.614;2022-09-23T10:24:22;6.45;;;5.30;;
58055;SDS011;53159;55.152;36.614;2022-09-23T10:26:55;8.15;;;5.90;;
58055;SDS011;53159;55.152;36.614;2022-09-23T10:29:31;5.50;;;4.65;;
58055;SDS011;53159;55.152;36.614;2022-09-23T10:35:00;6.35;;;4.47;;
58055;SDS011;53159;55.152;36.614;2022-09-23T10:43:24;6.18;;;5.05;;
58055;SDS011;53159;55.152;36.614;2022-09-23T10:46:28;5.82;;;5.13;;
58055;SDS011;53159;55.152;36.614;2022-09-23T10:52:18;5.88;;;5.13;;
58055;SDS011;53159;55.152;36.614;2022-09-23T10:55:15;11.13;;;5.85;;
58055;SDS011;53159;55.152;36.614;2022-09-23T11:06:02;6.90;;;5.87;;
58055;SDS011;53159;55.152;36.614;2022-09-23T11:14:49;8.25;;;6.85;;
58055;SDS011;53159;55.152;36.614;2022-09-23T11:25:53;9.38;;;5.85;;
58055;SDS011;53159;55.152;36.614;2022-09-23T11:36:59;7.55;;;5.95;;
58055;SDS011;53159;55.152;36.614;2022-09-23T11:39:49;7.72;;;6.40;;
58055;SDS011;53159;55.152;36.614;2022-09-23T11:42:19;7.70;;;6.10;;
58055;SDS011;53159;55.152;36.614;2022-09-23T11:45:33;7.45;;;5.80;;
58055;SDS011;53159;55.152;36.614;2022-09-23T11:48:41;5.40;;;4.88;;
58055;SDS011;53159;55.152;36.614;2022-09-23T11:54:23;6.30;;;5.63;;
58055;SDS011;53159;55.152;36.614;2022-09-23T11:57:00;8.90;;;7.93;;
58055;SDS011;53159;55.152;36.614;2022-09-23T11:59:38;10.60;;;8.57;;
58055;SDS011;53159;55.152;36.614;2022-09-23T12:02:18;9.23;;;8.32;;
58055;SDS011;53159;55.152;36.614;2022-09-23T12:05:02;9.57;;;7.80;;
58055;SDS011;53159;55.152;36.614;2022-09-23T12:10:35;7.05;;;6.35;;
58055;SDS011;53159;55.152;36.614;2022-09-23T12:19:01;9.10;;;7.43;;
58055;SDS011;53159;55.152;36.614;2022-09-23T12:25:05;12.75;;;10.07;;
58055;SDS011;53159;55.152;36.614;2022-09-23T12:27:42;14.57;;;11.65;;
58055;SDS011;53159;55.152;36.614;2022-09-23T12:30:19;13.77;;;9.50;;
58055;SDS011;53159;55.152;36.614;2022-09-23T12:33:09;11.30;;;10.10;;
58055;SDS011;53159;55.152;36.614;2022-09-23T12:35:48;10.95;;;9.90;;
58055;SDS011;53159;55.152;36.614;2022-09-23T12:38:25;10.88;;;8.40;;
58055;SDS011;53159;55.152;36.614;2022-09-23T12:41:00;10.15;;;7.22;;
58055;SDS011;53159;55.152;36.614;2022-09-23T12:46:39;7.35;;;5.20;;
58055;SDS011;53159;55.152;36.614;2022-09-23T12:54:45;6.32;;;5.65;;
58055;SDS011;53159;55.152;36.614;2022-09-23T13:02:39;6.55;;;5.63;;
58055;SDS011;53159;55.152;36.614;2022-09-23T13:05:57;5.82;;;4.95;;
58055;SDS011;53159;55.152;36.614;2022-09-23T13:08:45;10.70;;;5.70;;
58055;SDS011;53159;55.152;36.614;2022-09-23T13:13:53;16.48;;;6.50;;
58055;SDS011;53159;55.152;36.614;2022-09-23T13:18:59;7.93;;;5.90;;
58055;SDS011;53159;55.152;36.614;2022-09-23T13:29:29;16.10;;;11.43;;
58055;SDS011;53159;55.152;36.614;2022-09-23T13:32:02;17.50;;;14.32;;
58055;SDS011;53159;55.152;36.614;2022-09-23T13:34:32;11.65;;;10.13;;
58055;SDS011;53159;55.152;36.614;2022-09-23T13:37:16;9.07;;;8.07;;
58055;SDS011;53159;55.152;36.614;2022-09-23T13:39:46;9.23;;;6.88;;
58055;SDS011;53159;55.152;36.614;2022-09-23T13:42:24;11.95;;;6.25;;
58055;SDS011;53159;55.152;36.614;2022-09-23T13:44:55;16.15;;;12.40;;
58055;SDS011;53159;55.152;36.614;2022-09-23T13:47:45;12.73;;;9.93;;
58055;SDS011;53159;55.152;36.614;2022-09-23T13:50:17;10.43;;;7.78;;
58055;SDS011;53159;55.152;36.614;2022-09-23T13:52:52;8.55;;;7.13;;
58055;SDS011;53159;55.152;36.614;2022-09-23T13:55:23;14.02;;;10.93;;
58055;SDS011;53159;55.152;36.614;2022-09-23T14:00:43;9.85;;;7.50;;
58055;SDS011;53159;55.152;36.614;2022-09-23T14:03:27;10.60;;;6.82;;
58055;SDS011;53159;55.152;36.614;2022-09-23T14:06:00;22.58;;;18.50;;
58055;SDS011;53159;55.152;36.614;2022-09-23T14:08:31;22.67;;;13.73;;
58055;SDS011;53159;55.152;36.614;2022-09-23T14:10:58;8.13;;;6.53;;
58055;SDS011;53159;55.152;36.614;2022-09-23T14:13:27;7.50;;;5.30;;
58055;SDS011;53159;55.152;36.614;2022-09-23T14:16:00;5.60;;;5.05;;
58055;SDS011;53159;55.152;36.614;2022-09-23T14:18:36;5.25;;;4.75;;
58055;SDS011;53159;55.152;36.614;2022-09-23T14:21:05;5.82;;;5.22;;
58055;SDS011;53159;55.152;36.614;2022-09-23T14:23:53;7.32;;;5.30;;
58055;SDS011;53159;55.152;36.614;2022-09-23T14:26:22;6.70;;;5.88;;
58055;SDS011;53159;55.152;36.614;2022-09-23T14:28:50;5.75;;;5.00;;
58055;SDS011;53159;55.152;36.614;2022-09-23T14:31:18;7.95;;;5.63;;
58055;SDS011;53159;55.152;36.614;2022-09-23T14:33:46;6.50;;;5.32;;
58055;SDS011;53159;55.152;36.614;2022-09-23T14:36:15;8.35;;;6.13;;
58055;SDS011;53159;55.152;36.614;2022-09-23T14:39:03;7.95;;;5.75;;
58055;SDS011;53159;55.152;36.614;2022-09-23T14:41:36;7.68;;;5.22;;
58055;SDS011;53159;55.152;36.614;2022-09-23T14:44:21;7.07;;;6.38;;
58055;SDS011;53159;55.152;36.614;2022-09-23T14:46:57;7.65;;;5.28;;
58055;SDS011;53159;55.152;36.614;2022-09-23T14:49:24;6.43;;;5.07;;
58055;SDS011;53159;55.152;36.614;2022-09-23T14:51:54;8.48;;;4.88;;
58055;SDS011;53159;55.152;36.614;2022-09-23T14:56:59;6.55;;;4.50;;
58055;SDS011;53159;55.152;36.614;2022-09-23T15:02:58;10.65;;;5.15;;
58055;SDS011;53159;55.152;36.614;2022-09-23T15:08:06;8.73;;;6.10;;
58055;SDS011;53159;55.152;36.614;2022-09-23T15:10:36;10.23;;;5.75;;
58055;SDS011;53159;55.152;36.614;2022-09-23T15:13:10;8.65;;;5.90;;
58055;SDS011;53159;55.152;36.614;2022-09-23T15:15:41;8.48;;;6.53;;
58055;SDS011;53159;55.152;36.614;2022-09-23T15:18:13;11.25;;;6.82;;
58055;SDS011;53159;55.152;36.614;2022-09-23T15:21:00;11.80;;;7.38;;
58055;SDS011;53159;55.152;36.614;2022-09-23T15:26:22;6.97;;;6.07;;
58055;SDS011;53159;55.152;36.614;2022-09-23T15:28:51;11.13;;;7.22;;
58055;SDS011;53159;55.152;36.614;2022-09-23T15:31:24;9.63;;;8.07;;
58055;SDS011;53159;55.152;36.614;2022-09-23T15:33:52;12.50;;;8.10;;
58055;SDS011;53159;55.152;36.614;2022-09-23T15:36:25;11.50;;;7.50;;
58055;SDS011;53159;55.152;36.614;2022-09-23T15:38:54;13.85;;;7.40;;
58055;SDS011;53159;55.152;36.614;2022-09-23T15:41:27;9.40;;;7.88;;
58055;SDS011;53159;55.152;36.614;2022-09-23T15:43:54;8.27;;;7.43;;
58055;SDS011;53159;55.152;36.614;2022-09-23T15:46:24;8.30;;;7.35;;
58055;SDS011;53159;55.152;36.614;2022-09-23T15:49:03;13.05;;;7.20;;
58055;SDS011;53159;55.152;36.614;2022-09-23T15:51:38;8.55;;;7.13;;
58055;SDS011;53159;55.152;36.614;2022-09-23T15:54:11;11.05;;;7.85;;
58055;SDS011;53159;55.152;36.614;2022-09-23T15:56:39;8.60;;;7.70;;
58055;SDS011;53159;55.152;36.614;2022-09-23T15:59:06;13.70;;;7.72;;
58055;SDS011;53159;55.152;36.614;2022-09-23T16:01:34;14.63;;;9.13;;
58055;SDS011;53159;55.152;36.614;2022-09-23T16:04:03;9.80;;;8.80;;
58055;SDS011;53159;55.152;36.614;2022-09-23T16:06:31;12.93;;;7.88;;
58055;SDS011;53159;55.152;36.614;2022-09-23T16:09:00;13.52;;;9.57;;
58055;SDS011;53159;55.152;36.614;2022-09-23T16:11:29;13.60;;;9.30;;
58055;SDS011;53159;55.152;36.614;2022-09-23T16:14:00;13.73;;;10.18;;
58055;SDS011;53159;55.152;36.614;2022-09-23T16:16:28;14.18;;;9.23;;
58055;SDS011;53159;55.152;36.614;2022-09-23T16:18:57;13.55;;;10.38;;
58055;SDS011;53159;55.152;36.614;2022-09-23T16:21:25;15.80;;;10.57;;
58055;SDS011;53159;55.152;36.614;2022-09-23T16:23:54;13.95;;;10.93;;
58055;SDS011;53159;55.152;36.614;2022-09-23T16:26:26;12.40;;;10.30;;
58055;SDS011;53159;55.152;36.614;2022-09-23T16:28:58;15.77;;;9.68;;
58055;SDS011;53159;55.152;36.614;2022-09-23T16:31:27;11.82;;;9.32;;
58055;SDS011;53159;55.152;36.614;2022-09-23T16:33:58;11.75;;;9.90;;
58055;SDS011;53159;55.152;36.614;2022-09-23T16:36:29;16.23;;;9.90;;
58055;SDS011;53159;55.152;36.614;2022-09-23T16:39:03;12.88;;;9.82;;
58055;SDS011;53159;55.152;36.614;2022-09-23T16:41:34;17.52;;;11.13;;
58055;SDS011;53159;55.152;36.614;2022-09-23T16:44:02;13.13;;;10.40;;
58055;SDS011;53159;55.152;36.614;2022-09-23T16:46:32;13.77;;;9.75;;
58055;SDS011;53159;55.152;36.614;2022-09-23T16:49:00;11.13;;;9.75;;
58055;SDS011;53159;55.152;36.614;2022-09-23T16:51:29;13.55;;;11.18;;
58055;SDS011;53159;55.152;36.614;2022-09-23T16:54:07;11.15;;;9.75;;
58055;SDS011;53159;55.152;36.614;2022-09-23T16:56:36;11.55;;;9.63;;
58055;SDS011;53159;55.152;36.614;2022-09-23T16:59:05;14.07;;;11.05;;
58055;SDS011;53159;55.152;36.614;2022-09-23T17:01:32;14.25;;;10.48;;
58055;SDS011;53159;55.152;36.614;2022-09-23T17:04:18;13.50;;;11.23;;
58055;SDS011;53159;55.152;36.614;2022-09-23T17:06:49;15.55;;;10.82;;
58055;SDS011;53159;55.152;36.614;2022-09-23T17:09:17;14.07;;;9.77;;
58055;SDS011;53159;55.152;36.614;2022-09-23T17:11:47;11.70;;;9.85;;
58055;SDS011;53159;55.152;36.614;2022-09-23T17:14:44;12.18;;;9.95;;
58055;SDS011;53159;55.152;36.614;2022-09-23T17:17:12;15.13;;;10.15;;
58055;SDS011;53159;55.152;36.614;2022-09-23T17:19:39;11.40;;;9.52;;
58055;SDS011;53159;55.152;36.614;2022-09-23T17:22:06;17.45;;;9.82;;
58055;SDS011;53159;55.152;36.614;2022-09-23T17:24:34;12.02;;;9.27;;
58055;SDS011;53159;55.152;36.614;2022-09-23T17:27:01;14.32;;;9.80;;
58055;SDS011;53159;55.152;36.614;2022-09-23T17:29:29;12.73;;;9.82;;
58055;SDS011;53159;55.152;36.614;2022-09-23T17:31:56;11.80;;;9.50;;
58055;SDS011;53159;55.152;36.614;2022-09-23T17:34:24;11.50;;;9.88;;
58055;SDS011;53159;55.152;36.614;2022-09-23T17:36:51;11.93;;;10.70;;
58055;SDS011;53159;55.152;36.614;2022-09-23T17:39:19;10.57;;;9.48;;
58055;SDS011;53159;55.152;36.614;2022-09-23T17:41:47;13.05;;;10.15;;
58055;SDS011;53159;55.152;36.614;2022-09-23T17:44:14;11.07;;;9.65;;
58055;SDS011;53159;55.152;36.614;2022-09-23T17:46:42;17.02;;;12.23;;
58055;SDS011;53159;55.152;36.614;2022-09-23T17:49:12;16.35;;;12.40;;
58055;SDS011;53159;55.152;36.614;2022-09-23T17:51:41;16.80;;;12.82;;